sensor_id;sensor_type;location;lat;lon;timestamp;P1;durP1;ratioP1;P2;durP2;ratioP2
22665;SDS011;11499;49.486;11.104;2022-11-20T00:00:29;16.00;;;12.43;;
22665;SDS011;11499;49.486;11.104;2022-11-20T00:02:54;13.87;;;10.83;;
22665;SDS011;11499;49.486;11.104;2022-11-20T00:05:20;15.00;;;12.03;;
22665;SDS011;11499;49.486;11.104;2022-11-20T00:07:46;13.70;;;11.33;;
22665;SDS011;11499;49.486;11.104;2022-11-20T00:10:11;14.17;;;11.53;;
22665;SDS011;11499;49.486;11.104;2022-11-20T00:12:37;15.23;;;12.13;;
22665;SDS011;11499;49.486;11.104;2022-11-20T00:18:04;15.63;;;12.70;;
22665;SDS011;11499;49.486;11.104;2022-11-20T00:20:29;13.63;;;11.90;;
22665;SDS011;11499;49.486;11.104;2022-11-20T00:22:55;16.37;;;12.57;;
22665;SDS011;11499;49.486;11.104;2022-11-20T00:25:20;15.47;;;12.00;;
22665;SDS011;11499;49.486;11.104;2022-11-20T00:27:46;14.33;;;11.67;;
22665;SDS011;11499;49.486;11.104;2022-11-20T00:30:11;14.33;;;12.07;;
22665;SDS011;11499;49.486;11.104;2022-11-20T00:32:37;15.67;;;12.40;;
22665;SDS011;11499;49.486;11.104;2022-11-20T00:35:02;12.83;;;11.30;;
22665;SDS011;11499;49.486;11.104;2022-11-20T00:37:28;14.57;;;12.57;;
22665;SDS011;11499;49.486;11.104;2022-11-20T00:39:54;14.23;;;11.80;;
22665;SDS011;11499;49.486;11.104;2022-11-20T00:45:19;14.93;;;11.77;;
22665;SDS011;11499;49.486;11.104;2022-11-20T00:47:45;14.87;;;11.87;;
22665;SDS011;11499;49.486;11.104;2022-11-20T00:50:10;15.83;;;11.67;;
22665;SDS011;11499;49.486;11.104;2022-11-20T00:52:36;15.10;;;12.30;;
22665;SDS011;11499;49.486;11.104;2022-11-20T00:55:01;15.67;;;12.57;;
22665;SDS011;11499;49.486;11.104;2022-11-20T00:57:27;15.77;;;12.83;;
22665;SDS011;11499;49.486;11.104;2022-11-20T00:59:52;14.27;;;12.03;;
22665;SDS011;11499;49.486;11.104;2022-11-20T01:02:18;15.67;;;12.67;;
22665;SDS011;11499;49.486;11.104;2022-11-20T01:04:43;16.87;;;12.90;;
22665;SDS011;11499;49.486;11.104;2022-11-20T01:07:09;16.87;;;12.63;;
22665;SDS011;11499;49.486;11.104;2022-11-20T01:12:23;15.07;;;12.77;;
22665;SDS011;11499;49.486;11.104;2022-11-20T01:14:49;15.70;;;12.70;;
22665;SDS011;11499;49.486;11.104;2022-11-20T01:17:14;15.50;;;12.67;;
22665;SDS011;11499;49.486;11.104;2022-11-20T01:19:40;15.20;;;12.63;;
22665;SDS011;11499;49.486;11.104;2022-11-20T01:22:05;17.00;;;12.90;;
22665;SDS011;11499;49.486;11.104;2022-11-20T01:24:31;15.77;;;13.20;;
22665;SDS011;11499;49.486;11.104;2022-11-20T01:26:56;15.23;;;12.67;;
22665;SDS011;11499;49.486;11.104;2022-11-20T01:29:22;15.00;;;12.17;;
22665;SDS011;11499;49.486;11.104;2022-11-20T01:31:49;15.87;;;13.10;;
22665;SDS011;11499;49.486;11.104;2022-11-20T01:34:17;14.77;;;12.07;;
22665;SDS011;11499;49.486;11.104;2022-11-20T01:39:45;14.87;;;12.53;;
22665;SDS011;11499;49.486;11.104;2022-11-20T01:42:11;15.87;;;13.07;;
22665;SDS011;11499;49.486;11.104;2022-11-20T01:44:56;14.90;;;12.50;;
22665;SDS011;11499;49.486;11.104;2022-11-20T01:47:25;15.77;;;13.37;;
22665;SDS011;11499;49.486;11.104;2022-11-20T01:50:11;17.10;;;13.20;;
22665;SDS011;11499;49.486;11.104;2022-11-20T01:52:56;17.73;;;13.60;;
22665;SDS011;11499;49.486;11.104;2022-11-20T01:55:28;15.60;;;13.20;;
22665;SDS011;11499;49.486;11.104;2022-11-20T01:57:59;17.83;;;13.57;;
22665;SDS011;11499;49.486;11.104;2022-11-20T02:00:26;17.23;;;14.00;;
22665;SDS011;11499;49.486;11.104;2022-11-20T02:02:53;18.33;;;13.93;;
22665;SDS011;11499;49.486;11.104;2022-11-20T02:07:43;17.03;;;13.80;;
22665;SDS011;11499;49.486;11.104;2022-11-20T02:10:09;16.47;;;13.37;;
22665;SDS011;11499;49.486;11.104;2022-11-20T02:12:34;16.43;;;13.53;;
22665;SDS011;11499;49.486;11.104;2022-11-20T02:15:19;16.70;;;13.37;;
22665;SDS011;11499;49.486;11.104;2022-11-20T02:17:44;16.83;;;13.63;;
22665;SDS011;11499;49.486;11.104;2022-11-20T02:20:10;17.93;;;14.43;;
22665;SDS011;11499;49.486;11.104;2022-11-20T02:22:38;17.97;;;14.23;;
22665;SDS011;11499;49.486;11.104;2022-11-20T02:25:13;17.40;;;13.93;;
22665;SDS011;11499;49.486;11.104;2022-11-20T02:27:39;17.57;;;13.83;;
22665;SDS011;11499;49.486;11.104;2022-11-20T02:30:05;18.00;;;14.10;;
22665;SDS011;11499;49.486;11.104;2022-11-20T02:34:20;16.33;;;13.70;;
22665;SDS011;11499;49.486;11.104;2022-11-20T02:36:46;17.13;;;14.20;;
22665;SDS011;11499;49.486;11.104;2022-11-20T02:39:13;17.50;;;13.80;;
22665;SDS011;11499;49.486;11.104;2022-11-20T02:41:41;16.33;;;12.90;;
22665;SDS011;11499;49.486;11.104;2022-11-20T02:44:07;16.13;;;12.73;;
22665;SDS011;11499;49.486;11.104;2022-11-20T02:46:33;15.73;;;12.90;;
22665;SDS011;11499;49.486;11.104;2022-11-20T02:48:59;16.23;;;12.07;;
22665;SDS011;11499;49.486;11.104;2022-11-20T02:51:26;15.47;;;13.10;;
22665;SDS011;11499;49.486;11.104;2022-11-20T02:53:51;17.97;;;12.80;;
22665;SDS011;11499;49.486;11.104;2022-11-20T02:56:17;16.73;;;13.00;;
22665;SDS011;11499;49.486;11.104;2022-11-20T03:01:21;20.97;;;14.10;;
22665;SDS011;11499;49.486;11.104;2022-11-20T03:03:47;18.33;;;14.00;;
22665;SDS011;11499;49.486;11.104;2022-11-20T03:06:13;18.17;;;13.87;;
22665;SDS011;11499;49.486;11.104;2022-11-20T03:08:40;16.93;;;13.03;;
22665;SDS011;11499;49.486;11.104;2022-11-20T03:11:06;17.03;;;13.33;;
22665;SDS011;11499;49.486;11.104;2022-11-20T03:13:33;17.67;;;13.77;;
22665;SDS011;11499;49.486;11.104;2022-11-20T03:16:04;17.10;;;12.83;;
22665;SDS011;11499;49.486;11.104;2022-11-20T03:18:31;17.87;;;13.80;;
22665;SDS011;11499;49.486;11.104;2022-11-20T03:20:57;17.00;;;13.77;;
22665;SDS011;11499;49.486;11.104;2022-11-20T03:23:24;17.60;;;13.57;;
22665;SDS011;11499;49.486;11.104;2022-11-20T03:28:37;20.37;;;13.20;;
22665;SDS011;11499;49.486;11.104;2022-11-20T03:31:10;21.97;;;14.73;;
22665;SDS011;11499;49.486;11.104;2022-11-20T03:33:37;18.90;;;14.20;;
22665;SDS011;11499;49.486;11.104;2022-11-20T03:36:04;20.17;;;14.40;;
22665;SDS011;11499;49.486;11.104;2022-11-20T03:38:31;19.80;;;13.53;;
22665;SDS011;11499;49.486;11.104;2022-11-20T03:40:58;19.07;;;13.57;;
22665;SDS011;11499;49.486;11.104;2022-11-20T03:43:25;19.20;;;14.83;;
22665;SDS011;11499;49.486;11.104;2022-11-20T03:45:51;17.30;;;13.30;;
22665;SDS011;11499;49.486;11.104;2022-11-20T03:48:16;19.27;;;14.60;;
22665;SDS011;11499;49.486;11.104;2022-11-20T03:50:42;18.13;;;13.70;;
22665;SDS011;11499;49.486;11.104;2022-11-20T03:55:56;17.17;;;13.40;;
22665;SDS011;11499;49.486;11.104;2022-11-20T03:58:22;18.20;;;13.73;;
22665;SDS011;11499;49.486;11.104;2022-11-20T04:00:47;18.20;;;13.70;;
22665;SDS011;11499;49.486;11.104;2022-11-20T04:03:13;17.00;;;13.13;;
22665;SDS011;11499;49.486;11.104;2022-11-20T04:05:38;20.37;;;13.97;;
22665;SDS011;11499;49.486;11.104;2022-11-20T04:08:04;18.93;;;14.07;;
22665;SDS011;11499;49.486;11.104;2022-11-20T04:10:30;15.50;;;13.30;;
22665;SDS011;11499;49.486;11.104;2022-11-20T04:12:55;17.20;;;13.40;;
22665;SDS011;11499;49.486;11.104;2022-11-20T04:15:21;20.53;;;14.53;;
22665;SDS011;11499;49.486;11.104;2022-11-20T04:17:46;19.13;;;14.17;;
22665;SDS011;11499;49.486;11.104;2022-11-20T04:21:56;17.50;;;12.97;;
22665;SDS011;11499;49.486;11.104;2022-11-20T04:24:22;17.60;;;13.40;;
22665;SDS011;11499;49.486;11.104;2022-11-20T04:26:47;16.90;;;12.80;;
22665;SDS011;11499;49.486;11.104;2022-11-20T04:29:13;18.50;;;14.70;;
22665;SDS011;11499;49.486;11.104;2022-11-20T04:31:38;18.67;;;12.83;;
22665;SDS011;11499;49.486;11.104;2022-11-20T04:34:05;16.03;;;12.70;;
22665;SDS011;11499;49.486;11.104;2022-11-20T04:36:31;16.80;;;12.87;;
22665;SDS011;11499;49.486;11.104;2022-11-20T04:38:58;17.50;;;13.47;;
22665;SDS011;11499;49.486;11.104;2022-11-20T04:41:26;15.97;;;13.17;;
22665;SDS011;11499;49.486;11.104;2022-11-20T04:43:55;16.90;;;13.57;;
22665;SDS011;11499;49.486;11.104;2022-11-20T04:49:13;15.83;;;12.80;;
22665;SDS011;11499;49.486;11.104;2022-11-20T04:51:39;14.73;;;11.87;;
22665;SDS011;11499;49.486;11.104;2022-11-20T04:54:05;14.20;;;11.93;;
22665;SDS011;11499;49.486;11.104;2022-11-20T04:56:30;16.00;;;12.97;;
22665;SDS011;11499;49.486;11.104;2022-11-20T04:58:59;15.07;;;12.43;;
22665;SDS011;11499;49.486;11.104;2022-11-20T05:01:26;15.57;;;12.70;;
22665;SDS011;11499;49.486;11.104;2022-11-20T05:03:51;15.83;;;13.47;;
22665;SDS011;11499;49.486;11.104;2022-11-20T05:06:19;15.80;;;12.60;;
22665;SDS011;11499;49.486;11.104;2022-11-20T05:08:46;14.73;;;11.93;;
22665;SDS011;11499;49.486;11.104;2022-11-20T05:11:13;16.93;;;12.40;;
22665;SDS011;11499;49.486;11.104;2022-11-20T05:16:22;15.40;;;13.03;;
22665;SDS011;11499;49.486;11.104;2022-11-20T05:18:48;17.23;;;13.60;;
22665;SDS011;11499;49.486;11.104;2022-11-20T05:21:15;17.03;;;13.40;;
22665;SDS011;11499;49.486;11.104;2022-11-20T05:23:41;16.10;;;13.00;;
22665;SDS011;11499;49.486;11.104;2022-11-20T05:26:08;16.57;;;12.87;;
22665;SDS011;11499;49.486;11.104;2022-11-20T05:28:37;17.03;;;13.23;;
22665;SDS011;11499;49.486;11.104;2022-11-20T05:31:10;16.93;;;13.27;;
22665;SDS011;11499;49.486;11.104;2022-11-20T05:33:39;15.90;;;12.63;;
22665;SDS011;11499;49.486;11.104;2022-11-20T05:36:05;15.93;;;13.00;;
22665;SDS011;11499;49.486;11.104;2022-11-20T05:38:32;16.63;;;12.63;;
22665;SDS011;11499;49.486;11.104;2022-11-20T05:43:37;17.40;;;13.83;;
22665;SDS011;11499;49.486;11.104;2022-11-20T05:46:04;15.63;;;12.77;;
22665;SDS011;11499;49.486;11.104;2022-11-20T05:48:31;16.47;;;12.37;;
22665;SDS011;11499;49.486;11.104;2022-11-20T05:50:58;14.50;;;11.50;;
22665;SDS011;11499;49.486;11.104;2022-11-20T05:53:24;15.73;;;12.17;;
22665;SDS011;11499;49.486;11.104;2022-11-20T05:56:00;15.10;;;11.97;;
22665;SDS011;11499;49.486;11.104;2022-11-20T05:58:31;14.33;;;11.73;;
22665;SDS011;11499;49.486;11.104;2022-11-20T06:01:04;15.00;;;12.90;;
22665;SDS011;11499;49.486;11.104;2022-11-20T06:03:36;15.33;;;12.07;;
22665;SDS011;11499;49.486;11.104;2022-11-20T06:06:03;16.50;;;12.17;;
22665;SDS011;11499;49.486;11.104;2022-11-20T06:10:43;15.27;;;11.63;;
22665;SDS011;11499;49.486;11.104;2022-11-20T06:13:09;15.23;;;11.57;;
22665;SDS011;11499;49.486;11.104;2022-11-20T06:15:34;14.50;;;12.13;;
22665;SDS011;11499;49.486;11.104;2022-11-20T06:18:00;14.17;;;11.30;;
22665;SDS011;11499;49.486;11.104;2022-11-20T06:20:25;15.30;;;11.97;;
22665;SDS011;11499;49.486;11.104;2022-11-20T06:22:50;15.10;;;12.20;;
22665;SDS011;11499;49.486;11.104;2022-11-20T06:25:16;15.03;;;12.37;;
22665;SDS011;11499;49.486;11.104;2022-11-20T06:27:41;14.67;;;12.27;;
22665;SDS011;11499;49.486;11.104;2022-11-20T06:30:07;15.10;;;11.63;;
22665;SDS011;11499;49.486;11.104;2022-11-20T06:32:33;15.83;;;11.97;;
22665;SDS011;11499;49.486;11.104;2022-11-20T06:37:27;16.20;;;12.43;;
22665;SDS011;11499;49.486;11.104;2022-11-20T06:39:53;14.57;;;12.30;;
22665;SDS011;11499;49.486;11.104;2022-11-20T06:42:18;16.10;;;12.63;;
22665;SDS011;11499;49.486;11.104;2022-11-20T06:44:44;15.33;;;12.37;;
22665;SDS011;11499;49.486;11.104;2022-11-20T06:47:09;16.27;;;12.57;;
22665;SDS011;11499;49.486;11.104;2022-11-20T06:49:35;14.70;;;13.10;;
22665;SDS011;11499;49.486;11.104;2022-11-20T06:52:02;14.63;;;12.20;;
22665;SDS011;11499;49.486;11.104;2022-11-20T06:54:27;15.40;;;12.03;;
22665;SDS011;11499;49.486;11.104;2022-11-20T06:56:53;17.50;;;13.80;;
22665;SDS011;11499;49.486;11.104;2022-11-20T06:59:18;19.00;;;13.73;;
22665;SDS011;11499;49.486;11.104;2022-11-20T07:04:42;17.33;;;13.03;;
22665;SDS011;11499;49.486;11.104;2022-11-20T07:07:08;17.23;;;12.40;;
22665;SDS011;11499;49.486;11.104;2022-11-20T07:09:33;15.93;;;12.37;;
22665;SDS011;11499;49.486;11.104;2022-11-20T07:11:59;14.97;;;11.57;;
22665;SDS011;11499;49.486;11.104;2022-11-20T07:14:25;14.57;;;12.20;;
22665;SDS011;11499;49.486;11.104;2022-11-20T07:16:50;14.43;;;11.90;;
22665;SDS011;11499;49.486;11.104;2022-11-20T07:19:16;15.37;;;11.77;;
22665;SDS011;11499;49.486;11.104;2022-11-20T07:21:41;14.63;;;11.40;;
22665;SDS011;11499;49.486;11.104;2022-11-20T07:24:07;13.93;;;11.20;;
22665;SDS011;11499;49.486;11.104;2022-11-20T07:26:33;14.67;;;11.40;;
22665;SDS011;11499;49.486;11.104;2022-11-20T07:31:35;14.27;;;11.90;;
22665;SDS011;11499;49.486;11.104;2022-11-20T07:34:00;14.17;;;12.07;;
22665;SDS011;11499;49.486;11.104;2022-11-20T07:36:26;14.37;;;11.00;;
22665;SDS011;11499;49.486;11.104;2022-11-20T07:38:51;14.50;;;11.53;;
22665;SDS011;11499;49.486;11.104;2022-11-20T07:41:17;12.43;;;11.03;;
22665;SDS011;11499;49.486;11.104;2022-11-20T07:43:42;13.50;;;10.83;;
22665;SDS011;11499;49.486;11.104;2022-11-20T07:46:08;13.90;;;12.03;;
22665;SDS011;11499;49.486;11.104;2022-11-20T07:48:33;13.33;;;10.90;;
22665;SDS011;11499;49.486;11.104;2022-11-20T07:50:59;15.63;;;12.00;;
22665;SDS011;11499;49.486;11.104;2022-11-20T07:53:24;14.53;;;12.00;;
22665;SDS011;11499;49.486;11.104;2022-11-20T07:58:36;13.90;;;12.00;;
22665;SDS011;11499;49.486;11.104;2022-11-20T08:01:05;14.33;;;11.77;;
22665;SDS011;11499;49.486;11.104;2022-11-20T08:03:31;14.80;;;12.17;;
22665;SDS011;11499;49.486;11.104;2022-11-20T08:06:00;15.87;;;12.17;;
22665;SDS011;11499;49.486;11.104;2022-11-20T08:08:26;14.93;;;12.33;;
22665;SDS011;11499;49.486;11.104;2022-11-20T08:10:52;13.30;;;11.47;;
22665;SDS011;11499;49.486;11.104;2022-11-20T08:13:38;15.17;;;12.30;;
22665;SDS011;11499;49.486;11.104;2022-11-20T08:16:22;15.43;;;12.60;;
22665;SDS011;11499;49.486;11.104;2022-11-20T08:18:47;17.57;;;14.17;;
22665;SDS011;11499;49.486;11.104;2022-11-20T08:23:57;17.33;;;14.60;;
22665;SDS011;11499;49.486;11.104;2022-11-20T08:26:23;13.97;;;12.10;;
22665;SDS011;11499;49.486;11.104;2022-11-20T08:28:49;13.53;;;11.73;;
22665;SDS011;11499;49.486;11.104;2022-11-20T08:31:17;14.47;;;11.47;;
22665;SDS011;11499;49.486;11.104;2022-11-20T08:33:43;14.03;;;12.30;;
22665;SDS011;11499;49.486;11.104;2022-11-20T08:36:08;17.63;;;14.03;;
22665;SDS011;11499;49.486;11.104;2022-11-20T08:38:34;15.70;;;12.13;;
22665;SDS011;11499;49.486;11.104;2022-11-20T08:41:00;16.27;;;12.87;;
22665;SDS011;11499;49.486;11.104;2022-11-20T08:43:45;17.80;;;13.63;;
22665;SDS011;11499;49.486;11.104;2022-11-20T08:46:10;18.93;;;15.37;;
22665;SDS011;11499;49.486;11.104;2022-11-20T08:51:25;17.23;;;14.53;;
22665;SDS011;11499;49.486;11.104;2022-11-20T08:53:51;15.67;;;13.87;;
22665;SDS011;11499;49.486;11.104;2022-11-20T08:56:16;17.17;;;13.70;;
22665;SDS011;11499;49.486;11.104;2022-11-20T08:58:42;16.47;;;12.63;;
22665;SDS011;11499;49.486;11.104;2022-11-20T09:01:08;13.50;;;11.53;;
22665;SDS011;11499;49.486;11.104;2022-11-20T09:03:34;14.93;;;12.13;;
22665;SDS011;11499;49.486;11.104;2022-11-20T09:06:00;12.50;;;10.57;;
22665;SDS011;11499;49.486;11.104;2022-11-20T09:08:27;13.50;;;11.40;;
22665;SDS011;11499;49.486;11.104;2022-11-20T09:10:53;14.83;;;11.67;;
22665;SDS011;11499;49.486;11.104;2022-11-20T09:13:20;14.10;;;11.80;;
22665;SDS011;11499;49.486;11.104;2022-11-20T09:18:49;12.57;;;11.20;;
22665;SDS011;11499;49.486;11.104;2022-11-20T09:21:15;12.80;;;10.77;;
22665;SDS011;11499;49.486;11.104;2022-11-20T09:23:41;16.63;;;12.83;;
22665;SDS011;11499;49.486;11.104;2022-11-20T09:26:15;15.33;;;12.20;;
22665;SDS011;11499;49.486;11.104;2022-11-20T09:28:40;17.17;;;12.93;;
22665;SDS011;11499;49.486;11.104;2022-11-20T09:31:07;18.40;;;14.10;;
22665;SDS011;11499;49.486;11.104;2022-11-20T09:33:33;15.23;;;12.20;;
22665;SDS011;11499;49.486;11.104;2022-11-20T09:36:00;17.03;;;13.07;;
22665;SDS011;11499;49.486;11.104;2022-11-20T09:38:25;17.50;;;13.50;;
22665;SDS011;11499;49.486;11.104;2022-11-20T09:40:56;15.20;;;13.07;;
22665;SDS011;11499;49.486;11.104;2022-11-20T09:52:00;17.50;;;14.50;;
22665;SDS011;11499;49.486;11.104;2022-11-20T09:54:41;18.90;;;15.70;;
22665;SDS011;11499;49.486;11.104;2022-11-20T09:57:30;16.37;;;13.97;;
22665;SDS011;11499;49.486;11.104;2022-11-20T10:00:02;17.57;;;15.33;;
22665;SDS011;11499;49.486;11.104;2022-11-20T10:02:32;25.43;;;20.13;;
22665;SDS011;11499;49.486;11.104;2022-11-20T10:08:16;14.80;;;12.03;;
22665;SDS011;11499;49.486;11.104;2022-11-20T10:13:48;13.93;;;10.53;;
22665;SDS011;11499;49.486;11.104;2022-11-20T10:19:06;19.53;;;15.70;;
22665;SDS011;11499;49.486;11.104;2022-11-20T10:30:18;14.50;;;11.10;;
22665;SDS011;11499;49.486;11.104;2022-11-20T10:32:47;12.70;;;9.80;;
22665;SDS011;11499;49.486;11.104;2022-11-20T10:35:21;11.90;;;9.93;;
22665;SDS011;11499;49.486;11.104;2022-11-20T10:42:46;11.77;;;8.17;;
22665;SDS011;11499;49.486;11.104;2022-11-20T10:47:56;10.67;;;8.77;;
22665;SDS011;11499;49.486;11.104;2022-11-20T10:50:25;12.97;;;8.37;;
22665;SDS011;11499;49.486;11.104;2022-11-20T10:55:39;10.20;;;7.77;;
22665;SDS011;11499;49.486;11.104;2022-11-20T11:00:47;11.03;;;9.00;;
22665;SDS011;11499;49.486;11.104;2022-11-20T11:03:23;11.80;;;9.90;;
22665;SDS011;11499;49.486;11.104;2022-11-20T11:08:15;14.77;;;11.43;;
22665;SDS011;11499;49.486;11.104;2022-11-20T11:13:24;11.80;;;10.07;;
22665;SDS011;11499;49.486;11.104;2022-11-20T11:15:52;10.13;;;8.23;;
22665;SDS011;11499;49.486;11.104;2022-11-20T11:20:57;12.63;;;8.30;;
22665;SDS011;11499;49.486;11.104;2022-11-20T11:23:30;10.47;;;9.27;;
22665;SDS011;11499;49.486;11.104;2022-11-20T11:25:59;12.50;;;9.53;;
22665;SDS011;11499;49.486;11.104;2022-11-20T11:28:26;11.27;;;8.17;;
22665;SDS011;11499;49.486;11.104;2022-11-20T11:30:53;14.73;;;9.63;;
22665;SDS011;11499;49.486;11.104;2022-11-20T11:35:55;14.13;;;9.47;;
22665;SDS011;11499;49.486;11.104;2022-11-20T11:38:28;11.17;;;8.63;;
22665;SDS011;11499;49.486;11.104;2022-11-20T11:40:54;11.63;;;8.10;;
22665;SDS011;11499;49.486;11.104;2022-11-20T11:43:23;9.37;;;6.30;;
22665;SDS011;11499;49.486;11.104;2022-11-20T11:48:59;7.80;;;5.93;;
22665;SDS011;11499;49.486;11.104;2022-11-20T11:51:33;7.07;;;5.67;;
22665;SDS011;11499;49.486;11.104;2022-11-20T11:54:03;8.00;;;5.97;;
22665;SDS011;11499;49.486;11.104;2022-11-20T11:56:39;7.40;;;6.03;;
22665;SDS011;11499;49.486;11.104;2022-11-20T11:59:06;9.37;;;7.37;;
22665;SDS011;11499;49.486;11.104;2022-11-20T12:03:39;7.77;;;6.07;;
22665;SDS011;11499;49.486;11.104;2022-11-20T12:06:14;8.43;;;6.40;;
22665;SDS011;11499;49.486;11.104;2022-11-20T12:11:13;8.33;;;6.53;;
22665;SDS011;11499;49.486;11.104;2022-11-20T12:13:54;7.47;;;6.07;;
22665;SDS011;11499;49.486;11.104;2022-11-20T12:16:26;8.93;;;7.00;;
22665;SDS011;11499;49.486;11.104;2022-11-20T12:18:53;6.90;;;6.03;;
22665;SDS011;11499;49.486;11.104;2022-11-20T12:24:06;7.40;;;6.60;;
22665;SDS011;11499;49.486;11.104;2022-11-20T12:29:41;8.23;;;7.07;;
22665;SDS011;11499;49.486;11.104;2022-11-20T12:35:57;10.70;;;7.87;;
22665;SDS011;11499;49.486;11.104;2022-11-20T12:41:21;8.10;;;7.10;;
22665;SDS011;11499;49.486;11.104;2022-11-20T12:44:33;7.70;;;6.90;;
22665;SDS011;11499;49.486;11.104;2022-11-20T12:55:45;8.73;;;6.67;;
22665;SDS011;11499;49.486;11.104;2022-11-20T12:58:27;7.60;;;6.73;;
22665;SDS011;11499;49.486;11.104;2022-11-20T13:06:52;8.50;;;7.00;;
22665;SDS011;11499;49.486;11.104;2022-11-20T13:09:20;8.20;;;6.93;;
22665;SDS011;11499;49.486;11.104;2022-11-20T13:11:54;7.43;;;6.53;;
22665;SDS011;11499;49.486;11.104;2022-11-20T13:14:52;7.90;;;6.80;;
22665;SDS011;11499;49.486;11.104;2022-11-20T13:17:30;9.23;;;7.40;;
22665;SDS011;11499;49.486;11.104;2022-11-20T13:22:41;8.70;;;7.80;;
22665;SDS011;11499;49.486;11.104;2022-11-20T13:25:10;7.90;;;6.93;;
22665;SDS011;11499;49.486;11.104;2022-11-20T13:27:49;9.03;;;7.47;;
22665;SDS011;11499;49.486;11.104;2022-11-20T13:30:16;10.10;;;7.00;;
22665;SDS011;11499;49.486;11.104;2022-11-20T13:32:56;7.60;;;6.80;;
22665;SDS011;11499;49.486;11.104;2022-11-20T13:35:33;8.00;;;6.90;;
22665;SDS011;11499;49.486;11.104;2022-11-20T13:38:10;8.80;;;7.23;;
22665;SDS011;11499;49.486;11.104;2022-11-20T13:40:37;9.37;;;7.97;;
22665;SDS011;11499;49.486;11.104;2022-11-20T13:46:09;9.07;;;7.70;;
22665;SDS011;11499;49.486;11.104;2022-11-20T13:49:58;9.37;;;7.10;;
22665;SDS011;11499;49.486;11.104;2022-11-20T13:52:35;8.80;;;7.90;;
22665;SDS011;11499;49.486;11.104;2022-11-20T14:00:57;9.77;;;7.97;;
22665;SDS011;11499;49.486;11.104;2022-11-20T14:03:28;11.43;;;8.50;;
22665;SDS011;11499;49.486;11.104;2022-11-20T14:06:02;11.83;;;8.57;;
22665;SDS011;11499;49.486;11.104;2022-11-20T14:08:35;9.57;;;7.83;;
22665;SDS011;11499;49.486;11.104;2022-11-20T14:11:21;10.80;;;8.23;;
22665;SDS011;11499;49.486;11.104;2022-11-20T14:17:05;10.60;;;8.70;;
22665;SDS011;11499;49.486;11.104;2022-11-20T14:19:42;10.93;;;8.80;;
22665;SDS011;11499;49.486;11.104;2022-11-20T14:22:15;11.53;;;9.47;;
22665;SDS011;11499;49.486;11.104;2022-11-20T14:24:43;11.50;;;9.53;;
22665;SDS011;11499;49.486;11.104;2022-11-20T14:27:19;9.83;;;8.60;;
22665;SDS011;11499;49.486;11.104;2022-11-20T14:29:46;11.83;;;9.50;;
22665;SDS011;11499;49.486;11.104;2022-11-20T14:32:14;10.83;;;9.33;;
22665;SDS011;11499;49.486;11.104;2022-11-20T14:34:43;11.87;;;8.93;;
22665;SDS011;11499;49.486;11.104;2022-11-20T14:37:11;10.80;;;9.10;;
22665;SDS011;11499;49.486;11.104;2022-11-20T14:39:42;11.13;;;8.47;;
22665;SDS011;11499;49.486;11.104;2022-11-20T14:44:25;9.67;;;8.60;;
22665;SDS011;11499;49.486;11.104;2022-11-20T14:46:59;11.17;;;8.93;;
22665;SDS011;11499;49.486;11.104;2022-11-20T14:49:26;13.00;;;9.93;;
22665;SDS011;11499;49.486;11.104;2022-11-20T14:52:02;11.97;;;9.47;;
22665;SDS011;11499;49.486;11.104;2022-11-20T14:54:43;10.57;;;9.33;;
22665;SDS011;11499;49.486;11.104;2022-11-20T14:57:19;11.27;;;9.07;;
22665;SDS011;11499;49.486;11.104;2022-11-20T14:59:48;11.50;;;9.67;;
22665;SDS011;11499;49.486;11.104;2022-11-20T15:02:18;11.27;;;8.70;;
22665;SDS011;11499;49.486;11.104;2022-11-20T15:04:47;10.47;;;8.80;;
22665;SDS011;11499;49.486;11.104;2022-11-20T15:07:23;11.17;;;9.00;;
22665;SDS011;11499;49.486;11.104;2022-11-20T15:12:23;9.40;;;8.40;;
22665;SDS011;11499;49.486;11.104;2022-11-20T15:14:49;11.73;;;9.50;;
22665;SDS011;11499;49.486;11.104;2022-11-20T15:17:15;10.33;;;9.20;;
22665;SDS011;11499;49.486;11.104;2022-11-20T15:19:40;11.10;;;8.93;;
22665;SDS011;11499;49.486;11.104;2022-11-20T15:22:09;11.80;;;9.77;;
22665;SDS011;11499;49.486;11.104;2022-11-20T15:24:38;12.43;;;9.90;;
22665;SDS011;11499;49.486;11.104;2022-11-20T15:27:03;14.97;;;11.57;;
22665;SDS011;11499;49.486;11.104;2022-11-20T15:29:29;12.67;;;11.03;;
22665;SDS011;11499;49.486;11.104;2022-11-20T15:31:54;12.80;;;10.30;;
22665;SDS011;11499;49.486;11.104;2022-11-20T15:34:21;11.97;;;10.43;;
22665;SDS011;11499;49.486;11.104;2022-11-20T15:39:46;12.00;;;10.00;;
22665;SDS011;11499;49.486;11.104;2022-11-20T15:42:12;10.80;;;9.27;;
22665;SDS011;11499;49.486;11.104;2022-11-20T15:44:37;9.20;;;8.30;;
22665;SDS011;11499;49.486;11.104;2022-11-20T15:47:03;10.80;;;9.23;;
22665;SDS011;11499;49.486;11.104;2022-11-20T15:49:29;9.33;;;8.07;;
22665;SDS011;11499;49.486;11.104;2022-11-20T15:51:55;10.30;;;8.07;;
22665;SDS011;11499;49.486;11.104;2022-11-20T15:54:21;8.70;;;7.80;;
22665;SDS011;11499;49.486;11.104;2022-11-20T15:56:48;9.40;;;8.27;;
22665;SDS011;11499;49.486;11.104;2022-11-20T15:59:14;10.37;;;8.60;;
22665;SDS011;11499;49.486;11.104;2022-11-20T16:01:40;9.90;;;8.77;;
22665;SDS011;11499;49.486;11.104;2022-11-20T16:04:12;8.80;;;7.90;;
22665;SDS011;11499;49.486;11.104;2022-11-20T16:09:30;9.93;;;8.57;;
22665;SDS011;11499;49.486;11.104;2022-11-20T16:11:56;11.40;;;9.50;;
22665;SDS011;11499;49.486;11.104;2022-11-20T16:14:24;10.37;;;9.27;;
22665;SDS011;11499;49.486;11.104;2022-11-20T16:17:08;23.97;;;18.83;;
22665;SDS011;11499;49.486;11.104;2022-11-20T16:19:33;19.73;;;16.97;;
22665;SDS011;11499;49.486;11.104;2022-11-20T16:21:59;21.87;;;18.20;;
22665;SDS011;11499;49.486;11.104;2022-11-20T16:24:27;51.17;;;33.10;;
22665;SDS011;11499;49.486;11.104;2022-11-20T16:26:53;29.83;;;26.27;;
22665;SDS011;11499;49.486;11.104;2022-11-20T16:29:19;31.27;;;27.87;;
22665;SDS011;11499;49.486;11.104;2022-11-20T16:31:45;34.07;;;26.83;;
22665;SDS011;11499;49.486;11.104;2022-11-20T16:37:16;24.83;;;21.90;;
22665;SDS011;11499;49.486;11.104;2022-11-20T16:39:42;26.13;;;22.93;;
22665;SDS011;11499;49.486;11.104;2022-11-20T16:42:07;25.80;;;21.77;;
22665;SDS011;11499;49.486;11.104;2022-11-20T16:44:33;21.60;;;18.10;;
22665;SDS011;11499;49.486;11.104;2022-11-20T16:46:59;19.90;;;17.50;;
22665;SDS011;11499;49.486;11.104;2022-11-20T16:49:24;23.37;;;20.97;;
22665;SDS011;11499;49.486;11.104;2022-11-20T16:51:50;22.57;;;19.23;;
22665;SDS011;11499;49.486;11.104;2022-11-20T16:54:16;20.80;;;17.10;;
22665;SDS011;11499;49.486;11.104;2022-11-20T16:56:41;23.93;;;19.80;;
22665;SDS011;11499;49.486;11.104;2022-11-20T16:59:07;16.43;;;14.10;;
22665;SDS011;11499;49.486;11.104;2022-11-20T17:04:13;20.63;;;16.70;;
22665;SDS011;11499;49.486;11.104;2022-11-20T17:06:40;21.53;;;17.87;;
22665;SDS011;11499;49.486;11.104;2022-11-20T17:09:08;19.13;;;17.10;;
22665;SDS011;11499;49.486;11.104;2022-11-20T17:11:34;17.30;;;14.40;;